createdAt,value
2022-08-17T00:00:33.355Z,27.97
2022-08-17T00:03:15.138Z,21.73
2022-08-17T00:06:02.419Z,24.63
2022-08-17T00:08:36.316Z,23.97
2022-08-17T00:11:06.619Z,26.30
2022-08-17T00:13:46.162Z,22.90
2022-08-17T00:16:20.824Z,25.17
2022-08-17T00:19:21.159Z,24.77
2022-08-17T00:22:31.113Z,25.10
2022-08-17T00:24:36.587Z,25.13
2022-08-17T00:27:03.775Z,26.13
2022-08-17T00:29:31.443Z,20.83
2022-08-17T00:31:58.410Z,30.80
2022-08-17T00:34:25.315Z,25.23
2022-08-17T00:36:54.760Z,20.40
2022-08-17T00:39:21.585Z,20.90
2022-08-17T00:41:48.620Z,24.10
2022-08-17T00:44:17.858Z,23.90
2022-08-17T00:46:45.040Z,24.80
2022-08-17T00:49:13.101Z,26.53
2022-08-17T00:51:45.758Z,26.80
2022-08-17T00:54:23.001Z,24.70
2022-08-17T00:57:02.401Z,21.97
2022-08-17T00:59:43.958Z,25.13
2022-08-17T01:02:14.219Z,23.97
2022-08-17T01:04:43.237Z,23.97
2022-08-17T01:07:12.227Z,23.30
2022-08-17T01:09:40.455Z,27.37
2022-08-17T01:12:09.116Z,27.20
2022-08-17T01:14:36.876Z,23.80
2022-08-17T01:17:07.084Z,26.43
2022-08-17T01:19:39.173Z,34.13
2022-08-17T01:22:12.042Z,26.27
2022-08-17T01:24:43.200Z,31.93
2022-08-17T01:27:10.786Z,24.07
2022-08-17T01:29:39.890Z,25.83
2022-08-17T01:32:08.253Z,22.80
2022-08-17T01:34:42.574Z,35.40
2022-08-17T01:37:12.203Z,41.97
2022-08-17T01:39:53.958Z,26.13
2022-08-17T01:42:30.927Z,24.13
2022-08-17T01:45:01.903Z,26.87
2022-08-17T01:47:29.903Z,31.63
2022-08-17T01:49:58.011Z,24.13
2022-08-17T01:52:24.922Z,24.23
2022-08-17T01:54:52.520Z,25.30
2022-08-17T01:57:19.349Z,26.70
2022-08-17T01:59:46.209Z,25.93
2022-08-17T02:02:13.083Z,25.27
2022-08-17T02:04:58.089Z,24.73
2022-08-17T02:07:27.038Z,24.67
2022-08-17T02:09:54.422Z,24.83
2022-08-17T02:12:38.897Z,23.60
2022-08-17T02:15:09.809Z,28.40
2022-08-17T02:17:36.773Z,28.43
2022-08-17T02:20:08.287Z,29.87
2022-08-17T02:22:37.865Z,26.07
2022-08-17T02:25:09.287Z,26.27
2022-08-17T02:27:38.772Z,30.00
2022-08-17T02:30:59.889Z,29.47
2022-08-17T02:32:56.235Z,33.23
2022-08-17T02:35:23.607Z,28.13
2022-08-17T02:37:51.815Z,26.30
2022-08-17T02:40:36.111Z,30.73
2022-08-17T02:43:04.226Z,32.77
2022-08-17T02:45:31.091Z,26.37
2022-08-17T02:47:57.955Z,27.33
2022-08-17T02:50:25.438Z,25.17
2022-08-17T02:53:01.670Z,23.97
2022-08-17T02:55:38.036Z,24.03
2022-08-17T02:58:06.004Z,27.90
2022-08-17T03:00:41.065Z,27.00
2022-08-17T03:03:08.836Z,25.67
2022-08-17T03:05:37.841Z,28.87
2022-08-17T03:08:07.020Z,24.20
2022-08-17T03:10:40.184Z,28.00
2022-08-17T03:13:07.176Z,25.00
2022-08-17T03:15:35.076Z,27.63
2022-08-17T03:18:03.609Z,23.93
2022-08-17T03:20:32.351Z,22.23
2022-08-17T03:23:02.039Z,22.60
2022-08-17T03:25:36.671Z,26.07
2022-08-17T03:28:06.999Z,24.67
2022-08-17T03:30:34.354Z,23.67
2022-08-17T03:33:03.488Z,28.20
2022-08-17T03:35:33.346Z,25.57
2022-08-17T03:38:01.409Z,25.33
2022-08-17T03:40:34.602Z,25.33
2022-08-17T03:43:17.236Z,23.23
2022-08-17T03:46:02.685Z,24.93
2022-08-17T03:48:48.479Z,24.50
2022-08-17T03:51:40.412Z,24.17
2022-08-17T03:54:27.355Z,25.33
2022-08-17T03:57:07.103Z,22.97
2022-08-17T03:59:35.583Z,23.13
2022-08-17T04:02:09.830Z,21.33
2022-08-17T04:04:38.022Z,21.80
2022-08-17T04:07:05.565Z,23.87
2022-08-17T04:09:32.506Z,25.33
2022-08-17T04:12:02.386Z,24.13
2022-08-17T04:14:51.751Z,22.37
2022-08-17T04:17:21.952Z,24.77
2022-08-17T04:19:48.871Z,23.00
2022-08-17T04:22:30.954Z,28.07
2022-08-17T04:25:14.633Z,21.43
2022-08-17T04:27:41.454Z,22.93
2022-08-17T04:30:08.965Z,22.73
2022-08-17T04:33:14.043Z,30.17
2022-08-17T04:35:45.715Z,26.63
2022-08-17T04:38:18.334Z,27.83
2022-08-17T04:41:04.632Z,21.60
2022-08-17T04:43:33.102Z,19.50
2022-08-17T04:46:02.854Z,19.63
2022-08-17T04:48:36.150Z,18.40
2022-08-17T04:51:10.472Z,20.13
2022-08-17T04:53:40.553Z,26.10
2022-08-17T04:56:11.646Z,25.60
2022-08-17T04:58:44.836Z,22.33
2022-08-17T05:01:12.016Z,21.80
2022-08-17T05:03:38.867Z,18.67
2022-08-17T05:06:06.763Z,19.53
2022-08-17T05:08:33.849Z,48.80
2022-08-17T05:11:00.916Z,20.53
2022-08-17T05:13:32.092Z,19.03
2022-08-17T05:16:01.416Z,29.00
2022-08-17T05:18:29.953Z,23.57
2022-08-17T05:20:57.248Z,19.60
2022-08-17T05:23:25.750Z,20.00
2022-08-17T05:25:55.572Z,24.43
2022-08-17T05:28:26.549Z,28.40
2022-08-17T05:30:57.070Z,20.87
2022-08-17T05:33:28.654Z,24.50
2022-08-17T05:35:57.803Z,21.27
2022-08-17T05:38:26.244Z,25.20
2022-08-17T05:40:55.105Z,21.20
2022-08-17T05:43:26.367Z,17.17
2022-08-17T05:45:57.804Z,22.27
2022-08-17T05:48:39.676Z,22.97
2022-08-17T05:51:39.297Z,59.40
2022-08-17T05:54:09.170Z,27.60
2022-08-17T05:56:39.397Z,19.37
2022-08-17T05:59:30.644Z,20.20
2022-08-17T06:02:06.415Z,17.60
2022-08-17T06:04:47.090Z,17.43
2022-08-17T06:07:16.656Z,18.90
2022-08-17T06:09:57.478Z,17.77
2022-08-17T06:12:49.150Z,16.80
2022-08-17T06:15:49.570Z,18.70
2022-08-17T06:18:19.200Z,18.97
2022-08-17T06:20:51.932Z,20.00
2022-08-17T06:23:30.338Z,31.63
2022-08-17T06:26:04.033Z,18.93
2022-08-17T06:28:38.002Z,22.90
2022-08-17T06:31:21.409Z,24.97
2022-08-17T06:33:49.131Z,16.07
2022-08-17T06:36:37.578Z,20.13
2022-08-17T06:39:19.558Z,17.83
2022-08-17T06:41:57.275Z,16.77
2022-08-17T06:44:43.631Z,16.83
2022-08-17T06:47:36.446Z,14.27
2022-08-17T06:50:27.360Z,21.47
2022-08-17T06:53:12.304Z,17.70
2022-08-17T06:55:49.408Z,18.00
2022-08-17T06:58:22.372Z,17.30
2022-08-17T07:00:56.606Z,16.70
2022-08-17T07:03:37.853Z,37.07
2022-08-17T07:06:15.992Z,24.60
2022-08-17T07:09:25.603Z,27.10
2022-08-17T07:12:15.122Z,17.80
2022-08-17T07:14:57.514Z,18.10
2022-08-17T07:17:46.522Z,15.17
2022-08-17T07:20:20.465Z,32.03
2022-08-17T07:22:59.831Z,15.70
2022-08-17T07:25:30.741Z,16.08
2022-08-17T07:28:00.424Z,15.23
2022-08-17T07:30:47.009Z,15.77
2022-08-17T07:33:20.730Z,16.45
2022-08-17T07:35:49.895Z,15.57
2022-08-17T07:38:24.973Z,13.95
2022-08-17T07:41:02.183Z,15.88
2022-08-17T07:43:41.427Z,16.77
2022-08-17T07:46:50.940Z,16.75
2022-08-17T07:49:24.335Z,14.50
2022-08-17T07:51:51.153Z,13.93
2022-08-17T07:54:28.734Z,15.23
2022-08-17T07:56:59.066Z,12.77
2022-08-17T07:59:37.123Z,19.08
2022-08-17T08:02:17.184Z,13.07
2022-08-17T08:05:06.780Z,13.20
2022-08-17T08:07:39.538Z,13.90
2022-08-17T08:10:35.665Z,13.65
2022-08-17T08:13:14.149Z,12.88
2022-08-17T08:15:56.677Z,14.10
2022-08-17T08:18:56.085Z,14.55
2022-08-17T08:21:59.237Z,11.93
2022-08-17T08:24:41.339Z,12.80
2022-08-17T08:27:33.570Z,11.00
2022-08-17T08:30:12.168Z,17.00
2022-08-17T08:32:56.615Z,12.82
2022-08-17T08:35:39.017Z,11.25
2022-08-17T08:38:26.827Z,9.82
2022-08-17T08:41:24.157Z,10.02
2022-08-17T08:44:12.935Z,9.55
2022-08-17T08:47:07.001Z,10.27
2022-08-17T08:50:03.851Z,12.05
2022-08-17T08:52:57.253Z,9.88
2022-08-17T08:55:54.825Z,9.27
2022-08-17T08:58:41.798Z,14.50
2022-08-17T09:01:33.313Z,13.30
2022-08-17T09:04:25.529Z,12.02
2022-08-17T09:06:58.969Z,20.83
2022-08-17T09:09:49.742Z,12.43
2022-08-17T09:12:51.831Z,10.40
2022-08-17T09:15:25.675Z,10.07
2022-08-17T09:19:01.231Z,10.05
2022-08-17T09:21:28.641Z,9.27
2022-08-17T09:24:14.644Z,11.32
2022-08-17T09:27:11.821Z,10.48
2022-08-17T09:29:44.428Z,11.52
2022-08-17T09:32:31.247Z,8.43
2022-08-17T09:35:04.033Z,9.75
2022-08-17T09:37:47.239Z,10.82
2022-08-17T09:40:25.687Z,10.48
2022-08-17T09:43:06.407Z,10.05
2022-08-17T09:45:40.366Z,11.95
2022-08-17T09:48:25.705Z,9.98
2022-08-17T09:51:07.130Z,10.18
2022-08-17T09:53:38.146Z,10.00
2022-08-17T09:56:16.988Z,10.00
2022-08-17T09:58:56.478Z,9.70
2022-08-17T10:01:35.379Z,11.70
2022-08-17T10:04:05.674Z,12.25
2022-08-17T10:07:01.842Z,16.55
2022-08-17T10:10:00.747Z,14.27
2022-08-17T10:12:30.546Z,9.77
2022-08-17T10:15:17.450Z,10.82
2022-08-17T10:18:04.118Z,9.90
2022-08-17T10:20:41.914Z,16.02
2022-08-17T10:23:36.954Z,12.30
2022-08-17T10:26:14.974Z,10.07
2022-08-17T10:28:59.545Z,14.18
2022-08-17T10:31:39.883Z,12.48
2022-08-17T10:34:12.532Z,9.38
2022-08-17T10:37:09.824Z,12.25
2022-08-17T10:39:57.394Z,12.40
2022-08-17T10:42:33.353Z,16.92
2022-08-17T10:45:16.000Z,11.20
2022-08-17T10:48:21.146Z,11.15
2022-08-17T10:51:00.042Z,13.02
2022-08-17T10:53:32.746Z,10.25
2022-08-17T10:56:15.565Z,10.75
2022-08-17T10:58:50.626Z,14.13
2022-08-17T11:01:18.398Z,14.07
2022-08-17T11:04:27.652Z,11.02
2022-08-17T11:07:31.994Z,10.30
2022-08-17T11:10:10.621Z,12.52
2022-08-17T11:13:06.713Z,11.98
2022-08-17T11:16:23.356Z,9.18
2022-08-17T11:19:39.812Z,10.75
2022-08-17T11:26:26.973Z,8.65
2022-08-17T11:52:07.157Z,12.55
2022-08-17T11:54:46.263Z,13.85
2022-08-17T11:57:25.601Z,9.32
2022-08-17T12:00:11.540Z,8.98
2022-08-17T12:02:52.482Z,9.13
2022-08-17T12:05:43.922Z,10.27
2022-08-17T12:08:41.758Z,9.43
2022-08-17T12:12:04.645Z,11.88
2022-08-17T12:15:12.126Z,10.23
2022-08-17T12:17:52.448Z,9.90
2022-08-17T12:20:32.851Z,9.88
2022-08-17T12:23:19.566Z,8.13
2022-08-17T12:26:02.402Z,10.18
2022-08-17T12:28:35.081Z,11.48
2022-08-17T12:31:07.852Z,18.35
2022-08-17T12:33:51.872Z,13.73
2022-08-17T12:36:28.429Z,9.55
2022-08-17T12:39:24.934Z,11.18
2022-08-17T12:42:02.388Z,11.18
2022-08-17T12:44:32.808Z,9.52
2022-08-17T12:47:23.153Z,10.15
2022-08-17T12:49:55.100Z,9.82
2022-08-17T12:55:38.938Z,12.15
2022-08-17T12:58:14.300Z,15.40
2022-08-17T13:00:48.992Z,11.50
2022-08-17T13:03:36.288Z,12.13
2022-08-17T13:06:12.891Z,11.32
2022-08-17T13:08:46.537Z,10.75
2022-08-17T13:11:19.269Z,16.67
2022-08-17T13:13:50.835Z,9.30
2022-08-17T13:16:21.318Z,16.00
2022-08-17T13:18:52.757Z,10.60
2022-08-17T13:21:30.741Z,13.88
2022-08-17T13:24:02.088Z,13.75
2022-08-17T13:26:49.198Z,9.35
2022-08-17T13:29:37.218Z,13.43
2022-08-17T13:32:11.529Z,13.93
2022-08-17T13:35:15.086Z,12.77
2022-08-17T13:38:02.394Z,12.73
2022-08-17T13:40:42.715Z,9.18
2022-08-17T13:43:29.067Z,13.10
2022-08-17T13:46:09.030Z,13.32
2022-08-17T13:48:36.134Z,17.20
2022-08-17T13:51:13.690Z,14.00
2022-08-17T13:53:40.630Z,9.43
2022-08-17T13:56:37.428Z,9.18
2022-08-17T13:59:53.145Z,11.07
2022-08-17T14:02:14.288Z,11.00
2022-08-17T14:04:43.064Z,10.90
2022-08-17T14:07:14.886Z,18.95
2022-08-17T14:09:54.873Z,15.07
2022-08-17T14:12:27.097Z,10.75
2022-08-17T14:14:56.413Z,14.43
2022-08-17T14:17:24.675Z,8.10
2022-08-17T14:19:52.422Z,10.70
2022-08-17T14:22:25.698Z,9.50
2022-08-17T14:24:52.623Z,12.55
2022-08-17T14:27:20.596Z,12.77
2022-08-17T14:29:48.461Z,17.20
2022-08-17T14:32:22.040Z,12.15
2022-08-17T14:34:49.696Z,11.93
2022-08-17T14:37:18.301Z,11.95
2022-08-17T14:39:45.395Z,12.77
2022-08-17T14:42:12.521Z,9.52
2022-08-17T14:44:39.954Z,12.55
2022-08-17T14:47:12.309Z,10.85
2022-08-17T14:49:39.271Z,13.25
2022-08-17T14:52:06.486Z,9.38
2022-08-17T14:54:34.715Z,8.57
2022-08-17T14:57:22.566Z,10.85
2022-08-17T14:59:54.714Z,9.30
2022-08-17T15:02:30.265Z,12.68
2022-08-17T15:05:05.408Z,9.40
2022-08-17T15:07:32.513Z,9.20
2022-08-17T15:10:01.481Z,16.17
2022-08-17T15:12:33.118Z,14.63
2022-08-17T15:15:02.074Z,14.93
2022-08-17T15:17:44.553Z,10.02
2022-08-17T15:20:29.926Z,12.82
2022-08-17T15:22:59.049Z,10.43
2022-08-17T15:25:28.876Z,11.20
2022-08-17T15:27:56.084Z,8.20
2022-08-17T15:33:44.483Z,11.73
2022-08-17T15:36:11.363Z,12.07
2022-08-17T15:38:40.933Z,12.73
2022-08-17T15:41:17.227Z,17.00
2022-08-17T15:43:45.993Z,14.73
2022-08-17T15:46:17.583Z,11.07
2022-08-17T15:48:48.318Z,12.73
2022-08-17T15:51:27.985Z,9.80
2022-08-17T15:54:04.598Z,13.88
2022-08-17T15:56:46.619Z,14.13
2022-08-17T15:59:13.524Z,11.45
2022-08-17T16:03:14.277Z,12.55
2022-08-17T16:04:29.711Z,12.68
2022-08-17T16:06:58.789Z,11.73
2022-08-17T16:09:25.613Z,15.65
2022-08-17T16:11:55.664Z,11.25
2022-08-17T16:14:24.381Z,12.35
2022-08-17T16:16:52.739Z,13.65
2022-08-17T16:19:19.704Z,12.82
2022-08-17T16:21:46.534Z,10.88
2022-08-17T16:24:14.995Z,14.52
2022-08-17T16:26:42.532Z,15.90
2022-08-17T16:29:09.990Z,13.98
2022-08-17T16:31:37.902Z,11.88
2022-08-17T16:34:16.796Z,13.43
2022-08-17T16:36:55.265Z,14.85
2022-08-17T16:39:28.962Z,13.80
2022-08-17T16:41:56.615Z,15.70
2022-08-17T16:44:23.701Z,17.63
2022-08-17T16:46:50.757Z,14.30
2022-08-17T16:49:31.930Z,15.48
2022-08-17T16:52:11.753Z,14.90
2022-08-17T16:55:00.267Z,14.55
2022-08-17T16:57:28.050Z,14.07
2022-08-17T16:59:54.923Z,17.63
2022-08-17T17:02:36.576Z,16.65
2022-08-17T17:05:22.257Z,15.98
2022-08-17T17:08:08.981Z,17.55
2022-08-17T17:10:48.258Z,19.63
2022-08-17T17:13:37.412Z,15.90
2022-08-17T17:16:41.466Z,17.45
2022-08-17T17:19:17.972Z,17.27
2022-08-17T17:22:19.489Z,16.38
2022-08-17T17:25:18.573Z,18.00
2022-08-17T17:28:07.260Z,16.50
2022-08-17T17:30:43.431Z,19.75
2022-08-17T17:33:20.937Z,16.23
2022-08-17T17:35:56.869Z,17.10
2022-08-17T17:38:31.310Z,18.00
2022-08-17T17:41:06.763Z,16.70
2022-08-17T17:43:41.103Z,18.75
2022-08-17T17:46:27.306Z,23.58
2022-08-17T17:48:55.400Z,23.48
2022-08-17T17:54:44.178Z,17.13
2022-08-17T17:57:21.399Z,17.67
2022-08-17T18:00:23.513Z,19.05
2022-08-17T18:03:08.548Z,17.88
2022-08-17T18:06:08.160Z,18.42
2022-08-17T18:08:58.628Z,17.73
2022-08-17T18:11:44.175Z,17.10
2022-08-17T18:14:23.052Z,17.13
2022-08-17T18:17:00.487Z,22.02
2022-08-17T18:19:30.052Z,20.52
2022-08-17T18:22:21.497Z,19.95
2022-08-17T18:24:55.990Z,20.42
2022-08-17T18:28:05.028Z,18.73
2022-08-17T18:30:32.015Z,18.27
2022-08-17T18:33:19.701Z,19.00
2022-08-17T18:35:58.732Z,18.80
2022-08-17T18:38:38.131Z,18.42
2022-08-17T18:41:23.361Z,26.75
2022-08-17T18:44:28.638Z,20.77
2022-08-17T18:47:13.772Z,32.75
2022-08-17T18:49:42.911Z,23.38
2022-08-17T18:52:15.810Z,19.52
2022-08-17T18:55:08.899Z,22.20
2022-08-17T18:57:44.693Z,24.42
2022-08-17T19:00:32.296Z,20.60
2022-08-17T19:03:24.290Z,24.83
2022-08-17T19:05:52.658Z,19.02
2022-08-17T19:08:22.470Z,22.38
2022-08-17T19:11:11.669Z,26.25
2022-08-17T19:14:09.680Z,19.85
2022-08-17T19:16:57.355Z,24.23
2022-08-17T19:19:56.273Z,23.17
2022-08-17T19:22:33.117Z,22.27
2022-08-17T19:25:16.089Z,23.95
2022-08-17T19:27:57.259Z,22.48
2022-08-17T19:30:25.127Z,22.73
2022-08-17T19:32:53.070Z,25.85
2022-08-17T19:35:24.633Z,24.33
2022-08-17T19:37:51.633Z,23.75
2022-08-17T19:40:41.696Z,43.72
2022-08-17T19:43:11.224Z,25.67
2022-08-17T19:46:16.000Z,22.90
2022-08-17T19:48:57.898Z,24.40
2022-08-17T19:51:47.858Z,22.60
2022-08-17T19:54:20.580Z,23.27
2022-08-17T19:57:24.925Z,24.70
2022-08-17T20:00:01.878Z,24.93
2022-08-17T20:02:43.406Z,24.10
2022-08-17T20:05:28.587Z,22.50
2022-08-17T20:08:00.512Z,24.03
2022-08-17T20:10:48.005Z,26.55
2022-08-17T20:13:33.371Z,29.47
2022-08-17T20:16:01.304Z,28.20
2022-08-17T20:18:47.759Z,23.83
2022-08-17T20:21:34.969Z,25.77
2022-08-17T20:24:18.083Z,27.03
2022-08-17T20:26:58.884Z,23.53
2022-08-17T20:29:39.621Z,24.33
2022-08-17T20:32:22.058Z,28.80
2022-08-17T20:35:00.129Z,25.77
2022-08-17T20:37:31.517Z,27.57
2022-08-17T20:39:58.408Z,31.03
2022-08-17T20:42:26.009Z,24.57
2022-08-17T20:44:59.357Z,26.53
2022-08-17T20:48:00.781Z,28.93
2022-08-17T20:50:33.185Z,26.23
2022-08-17T20:53:10.028Z,27.13
2022-08-17T20:55:51.720Z,27.27
2022-08-17T20:58:31.177Z,27.90
2022-08-17T21:00:58.928Z,27.53
2022-08-17T21:03:39.981Z,28.33
2022-08-17T21:06:18.914Z,27.90
2022-08-17T21:09:29.758Z,28.27
2022-08-17T21:12:54.495Z,25.93
2022-08-17T21:16:13.515Z,25.57
2022-08-17T21:19:31.278Z,28.40
2022-08-17T21:23:27.203Z,27.73
2022-08-17T21:26:30.578Z,27.10
2022-08-17T21:29:31.212Z,24.20
2022-08-17T21:32:02.735Z,27.93
2022-08-17T21:34:33.076Z,27.30
2022-08-17T21:37:18.659Z,30.83
2022-08-17T21:39:56.141Z,31.10
2022-08-17T21:42:29.107Z,27.57
2022-08-17T21:45:09.882Z,24.60
2022-08-17T21:47:45.484Z,29.87
2022-08-17T21:50:24.362Z,27.00
2022-08-17T21:53:02.455Z,27.20
2022-08-17T21:55:32.158Z,25.35
2022-08-17T21:58:14.125Z,24.57
2022-08-17T22:00:44.510Z,27.03
2022-08-17T22:03:24.202Z,26.70
2022-08-17T22:05:51.692Z,29.38
2022-08-17T22:08:24.749Z,28.53
2022-08-17T22:11:05.868Z,30.93
2022-08-17T22:13:37.549Z,28.33
2022-08-17T22:16:04.409Z,30.03
2022-08-17T22:18:47.665Z,33.40
2022-08-17T22:21:22.451Z,30.40
2022-08-17T22:24:03.872Z,33.83
2022-08-17T22:27:01.925Z,28.50
2022-08-17T22:29:54.258Z,28.47
2022-08-17T22:32:45.947Z,26.63
2022-08-17T22:35:29.295Z,29.13
2022-08-17T22:37:57.405Z,25.80
2022-08-17T22:40:34.549Z,26.93
2022-08-17T22:43:03.610Z,29.67
2022-08-17T22:45:31.278Z,27.80
2022-08-17T22:48:00.302Z,27.93
2022-08-17T22:50:30.694Z,30.10
2022-08-17T22:53:22.348Z,33.13
2022-08-17T22:56:13.968Z,29.67
2022-08-17T22:59:11.642Z,33.73
2022-08-17T23:01:39.521Z,34.23
2022-08-17T23:04:10.544Z,30.77
2022-08-17T23:06:40.132Z,31.07
2022-08-17T23:09:08.098Z,30.87
2022-08-17T23:11:50.490Z,31.77
2022-08-17T23:14:20.224Z,29.10
2022-08-17T23:16:49.026Z,33.13
2022-08-17T23:19:19.614Z,31.57
2022-08-17T23:21:47.434Z,32.60
2022-08-17T23:24:22.675Z,38.13
2022-08-17T23:26:49.970Z,33.83
2022-08-17T23:29:16.829Z,33.73
2022-08-17T23:31:43.780Z,33.30
2022-08-17T23:34:13.693Z,30.73
2022-08-17T23:36:41.178Z,32.27
2022-08-17T23:39:08.224Z,31.40
2022-08-17T23:41:38.606Z,28.93
2022-08-17T23:44:06.425Z,35.50
2022-08-17T23:46:33.368Z,31.77
2022-08-17T23:49:00.642Z,31.83
2022-08-17T23:51:31.463Z,30.37
2022-08-17T23:54:08.233Z,45.57
2022-08-17T23:56:42.178Z,38.03
2022-08-17T23:59:09.132Z,29.63
